sensor_id;sensor_type;location;lat;lon;timestamp;P1;durP1;ratioP1;P2;durP2;ratioP2
61903;SDS011;47857;52.270;6.804;2023-02-13T00:02:00;31.70;;;18.45;;
61903;SDS011;47857;52.270;6.804;2023-02-13T00:04:26;30.88;;;18.30;;
61903;SDS011;47857;52.270;6.804;2023-02-13T00:06:51;31.50;;;18.98;;
61903;SDS011;47857;52.270;6.804;2023-02-13T00:09:17;31.88;;;18.70;;
61903;SDS011;47857;52.270;6.804;2023-02-13T00:11:42;31.35;;;18.58;;
61903;SDS011;47857;52.270;6.804;2023-02-13T00:14:08;32.75;;;19.50;;
61903;SDS011;47857;52.270;6.804;2023-02-13T00:16:34;30.80;;;18.20;;
61903;SDS011;47857;52.270;6.804;2023-02-13T00:19:00;30.42;;;18.40;;
61903;SDS011;47857;52.270;6.804;2023-02-13T00:21:25;31.70;;;18.65;;
61903;SDS011;47857;52.270;6.804;2023-02-13T00:23:51;30.92;;;18.00;;
61903;SDS011;47857;52.270;6.804;2023-02-13T00:26:16;29.02;;;17.98;;
61903;SDS011;47857;52.270;6.804;2023-02-13T00:28:43;31.48;;;18.25;;
61903;SDS011;47857;52.270;6.804;2023-02-13T00:31:10;32.20;;;18.92;;
61903;SDS011;47857;52.270;6.804;2023-02-13T00:33:37;31.15;;;18.73;;
61903;SDS011;47857;52.270;6.804;2023-02-13T00:36:04;34.58;;;18.73;;
61903;SDS011;47857;52.270;6.804;2023-02-13T00:38:49;30.58;;;17.90;;
61903;SDS011;47857;52.270;6.804;2023-02-13T00:41:15;32.08;;;18.63;;
61903;SDS011;47857;52.270;6.804;2023-02-13T00:43:41;31.83;;;18.30;;
61903;SDS011;47857;52.270;6.804;2023-02-13T00:46:07;30.42;;;18.35;;
61903;SDS011;47857;52.270;6.804;2023-02-13T00:48:33;32.40;;;18.98;;
61903;SDS011;47857;52.270;6.804;2023-02-13T00:50:59;31.63;;;18.95;;
61903;SDS011;47857;52.270;6.804;2023-02-13T00:53:26;32.97;;;18.73;;
61903;SDS011;47857;52.270;6.804;2023-02-13T00:55:52;33.85;;;19.25;;
61903;SDS011;47857;52.270;6.804;2023-02-13T00:58:17;34.13;;;19.48;;
61903;SDS011;47857;52.270;6.804;2023-02-13T01:00:44;32.15;;;19.08;;
61903;SDS011;47857;52.270;6.804;2023-02-13T01:03:13;33.28;;;18.45;;
61903;SDS011;47857;52.270;6.804;2023-02-13T01:05:39;33.55;;;19.00;;
61903;SDS011;47857;52.270;6.804;2023-02-13T01:08:05;34.88;;;19.30;;
61903;SDS011;47857;52.270;6.804;2023-02-13T01:10:31;32.55;;;18.83;;
61903;SDS011;47857;52.270;6.804;2023-02-13T01:12:57;33.72;;;19.25;;
61903;SDS011;47857;52.270;6.804;2023-02-13T01:15:23;34.10;;;19.60;;
61903;SDS011;47857;52.270;6.804;2023-02-13T01:17:48;31.13;;;18.50;;
61903;SDS011;47857;52.270;6.804;2023-02-13T01:20:15;31.52;;;19.58;;
61903;SDS011;47857;52.270;6.804;2023-02-13T01:22:43;35.55;;;19.00;;
61903;SDS011;47857;52.270;6.804;2023-02-13T01:25:09;31.73;;;19.40;;
61903;SDS011;47857;52.270;6.804;2023-02-13T01:27:34;32.80;;;19.60;;
61903;SDS011;47857;52.270;6.804;2023-02-13T01:30:03;34.22;;;20.33;;
61903;SDS011;47857;52.270;6.804;2023-02-13T01:32:29;35.05;;;19.90;;
61903;SDS011;47857;52.270;6.804;2023-02-13T01:34:55;34.50;;;19.35;;
61903;SDS011;47857;52.270;6.804;2023-02-13T01:37:20;41.92;;;21.35;;
61903;SDS011;47857;52.270;6.804;2023-02-13T01:39:46;31.20;;;19.20;;
61903;SDS011;47857;52.270;6.804;2023-02-13T01:42:15;33.83;;;19.05;;
61903;SDS011;47857;52.270;6.804;2023-02-13T01:44:52;33.53;;;19.33;;
61903;SDS011;47857;52.270;6.804;2023-02-13T01:47:22;32.00;;;19.75;;
61903;SDS011;47857;52.270;6.804;2023-02-13T01:53:05;33.75;;;19.75;;
61903;SDS011;47857;52.270;6.804;2023-02-13T01:55:33;34.58;;;19.15;;
61903;SDS011;47857;52.270;6.804;2023-02-13T01:58:07;34.58;;;19.67;;
61903;SDS011;47857;52.270;6.804;2023-02-13T02:00:36;36.88;;;20.42;;
61903;SDS011;47857;52.270;6.804;2023-02-13T02:03:07;32.42;;;19.33;;
61903;SDS011;47857;52.270;6.804;2023-02-13T02:05:35;32.65;;;18.05;;
61903;SDS011;47857;52.270;6.804;2023-02-13T02:08:01;36.55;;;20.58;;
61903;SDS011;47857;52.270;6.804;2023-02-13T02:10:29;34.22;;;19.42;;
61903;SDS011;47857;52.270;6.804;2023-02-13T02:13:02;32.80;;;19.48;;
61903;SDS011;47857;52.270;6.804;2023-02-13T02:15:29;33.00;;;18.90;;
61903;SDS011;47857;52.270;6.804;2023-02-13T02:17:56;35.65;;;19.50;;
61903;SDS011;47857;52.270;6.804;2023-02-13T02:47:58;37.17;;;19.52;;
61903;SDS011;47857;52.270;6.804;2023-02-13T02:56:09;34.00;;;18.98;;
61903;SDS011;47857;52.270;6.804;2023-02-13T02:58:52;39.97;;;20.15;;
61903;SDS011;47857;52.270;6.804;2023-02-13T03:01:40;36.85;;;20.00;;
61903;SDS011;47857;52.270;6.804;2023-02-13T03:04:26;35.67;;;19.25;;
61903;SDS011;47857;52.270;6.804;2023-02-13T03:07:14;36.65;;;20.15;;
61903;SDS011;47857;52.270;6.804;2023-02-13T03:09:42;37.63;;;19.95;;
61903;SDS011;47857;52.270;6.804;2023-02-13T03:12:37;36.13;;;19.70;;
61903;SDS011;47857;52.270;6.804;2023-02-13T03:15:24;38.85;;;19.88;;
61903;SDS011;47857;52.270;6.804;2023-02-13T03:17:51;35.10;;;20.20;;
61903;SDS011;47857;52.270;6.804;2023-02-13T03:20:48;36.00;;;19.33;;
61903;SDS011;47857;52.270;6.804;2023-02-13T03:26:19;36.17;;;19.23;;
61903;SDS011;47857;52.270;6.804;2023-02-13T03:38:35;34.17;;;19.10;;
61903;SDS011;47857;52.270;6.804;2023-02-13T03:41:09;36.85;;;20.48;;
61903;SDS011;47857;52.270;6.804;2023-02-13T03:46:27;34.63;;;19.55;;
61903;SDS011;47857;52.270;6.804;2023-02-13T03:48:55;36.17;;;19.67;;
61903;SDS011;47857;52.270;6.804;2023-02-13T03:51:47;37.00;;;20.20;;
61903;SDS011;47857;52.270;6.804;2023-02-13T03:54:22;35.50;;;19.88;;
61903;SDS011;47857;52.270;6.804;2023-02-13T03:57:09;37.15;;;19.85;;
61903;SDS011;47857;52.270;6.804;2023-02-13T03:59:54;37.42;;;20.15;;
61903;SDS011;47857;52.270;6.804;2023-02-13T04:02:21;39.15;;;20.80;;
61903;SDS011;47857;52.270;6.804;2023-02-13T04:04:53;38.67;;;21.02;;
61903;SDS011;47857;52.270;6.804;2023-02-13T04:07:32;39.03;;;21.43;;
61903;SDS011;47857;52.270;6.804;2023-02-13T04:10:03;37.92;;;21.20;;
61903;SDS011;47857;52.270;6.804;2023-02-13T04:15:28;39.15;;;21.35;;
61903;SDS011;47857;52.270;6.804;2023-02-13T04:17:56;39.03;;;21.98;;
61903;SDS011;47857;52.270;6.804;2023-02-13T04:20:27;41.65;;;20.98;;
61903;SDS011;47857;52.270;6.804;2023-02-13T04:22:53;39.20;;;21.58;;
61903;SDS011;47857;52.270;6.804;2023-02-13T04:25:18;36.55;;;20.70;;
61903;SDS011;47857;52.270;6.804;2023-02-13T04:27:44;39.55;;;22.38;;
61903;SDS011;47857;52.270;6.804;2023-02-13T04:30:10;39.58;;;21.48;;
61903;SDS011;47857;52.270;6.804;2023-02-13T04:32:36;36.42;;;21.05;;
61903;SDS011;47857;52.270;6.804;2023-02-13T04:35:02;38.15;;;22.08;;
61903;SDS011;47857;52.270;6.804;2023-02-13T04:37:28;37.40;;;21.73;;
61903;SDS011;47857;52.270;6.804;2023-02-13T04:39:53;39.63;;;21.85;;
61903;SDS011;47857;52.270;6.804;2023-02-13T04:42:18;39.90;;;21.83;;
61903;SDS011;47857;52.270;6.804;2023-02-13T04:44:44;41.60;;;22.13;;
61903;SDS011;47857;52.270;6.804;2023-02-13T04:47:09;38.03;;;21.98;;
61903;SDS011;47857;52.270;6.804;2023-02-13T04:49:35;34.35;;;19.83;;
61903;SDS011;47857;52.270;6.804;2023-02-13T04:52:00;40.03;;;22.23;;
61903;SDS011;47857;52.270;6.804;2023-02-13T04:54:26;38.65;;;22.17;;
61903;SDS011;47857;52.270;6.804;2023-02-13T04:56:51;42.53;;;21.40;;
61903;SDS011;47857;52.270;6.804;2023-02-13T04:59:17;41.53;;;21.67;;
61903;SDS011;47857;52.270;6.804;2023-02-13T05:01:43;39.40;;;22.15;;
61903;SDS011;47857;52.270;6.804;2023-02-13T05:04:08;41.20;;;22.88;;
61903;SDS011;47857;52.270;6.804;2023-02-13T05:06:35;38.63;;;22.17;;
61903;SDS011;47857;52.270;6.804;2023-02-13T05:09:02;39.28;;;21.98;;
61903;SDS011;47857;52.270;6.804;2023-02-13T05:11:27;39.97;;;22.13;;
61903;SDS011;47857;52.270;6.804;2023-02-13T05:13:53;42.63;;;21.85;;
61903;SDS011;47857;52.270;6.804;2023-02-13T05:16:18;39.15;;;21.23;;
61903;SDS011;47857;52.270;6.804;2023-02-13T05:18:44;42.08;;;22.65;;
61903;SDS011;47857;52.270;6.804;2023-02-13T05:21:09;41.72;;;22.95;;
61903;SDS011;47857;52.270;6.804;2023-02-13T05:23:53;37.10;;;21.50;;
61903;SDS011;47857;52.270;6.804;2023-02-13T05:26:18;36.65;;;22.13;;
61903;SDS011;47857;52.270;6.804;2023-02-13T05:28:44;41.33;;;21.63;;
61903;SDS011;47857;52.270;6.804;2023-02-13T05:31:28;40.13;;;22.67;;
61903;SDS011;47857;52.270;6.804;2023-02-13T05:33:53;38.65;;;22.20;;
61903;SDS011;47857;52.270;6.804;2023-02-13T05:36:19;38.95;;;22.88;;
61903;SDS011;47857;52.270;6.804;2023-02-13T05:38:44;39.15;;;22.58;;
61903;SDS011;47857;52.270;6.804;2023-02-13T05:41:10;38.22;;;21.80;;
61903;SDS011;47857;52.270;6.804;2023-02-13T05:43:37;40.88;;;22.38;;
61903;SDS011;47857;52.270;6.804;2023-02-13T05:46:03;41.08;;;23.52;;
61903;SDS011;47857;52.270;6.804;2023-02-13T05:48:30;38.03;;;21.92;;
61903;SDS011;47857;52.270;6.804;2023-02-13T05:50:56;36.83;;;21.77;;
61903;SDS011;47857;52.270;6.804;2023-02-13T05:53:21;42.63;;;23.00;;
61903;SDS011;47857;52.270;6.804;2023-02-13T05:55:47;39.30;;;22.45;;
61903;SDS011;47857;52.270;6.804;2023-02-13T05:58:15;40.17;;;22.20;;
61903;SDS011;47857;52.270;6.804;2023-02-13T06:00:40;40.25;;;22.83;;
61903;SDS011;47857;52.270;6.804;2023-02-13T06:03:05;40.22;;;23.23;;
61903;SDS011;47857;52.270;6.804;2023-02-13T06:05:31;39.95;;;22.27;;
61903;SDS011;47857;52.270;6.804;2023-02-13T06:07:56;38.50;;;21.58;;
61903;SDS011;47857;52.270;6.804;2023-02-13T06:10:22;42.63;;;22.25;;
61903;SDS011;47857;52.270;6.804;2023-02-13T06:12:47;39.58;;;22.98;;
61903;SDS011;47857;52.270;6.804;2023-02-13T06:15:13;39.28;;;22.13;;
61903;SDS011;47857;52.270;6.804;2023-02-13T06:17:38;40.03;;;23.23;;
61903;SDS011;47857;52.270;6.804;2023-02-13T06:20:04;39.55;;;23.02;;
61903;SDS011;47857;52.270;6.804;2023-02-13T06:22:30;40.60;;;23.88;;
61903;SDS011;47857;52.270;6.804;2023-02-13T06:24:56;42.05;;;24.05;;
61903;SDS011;47857;52.270;6.804;2023-02-13T06:27:21;40.45;;;23.20;;
61903;SDS011;47857;52.270;6.804;2023-02-13T06:29:47;35.83;;;21.92;;
61903;SDS011;47857;52.270;6.804;2023-02-13T06:32:12;40.38;;;23.40;;
61903;SDS011;47857;52.270;6.804;2023-02-13T06:34:38;39.97;;;22.80;;
61903;SDS011;47857;52.270;6.804;2023-02-13T06:37:03;39.78;;;23.35;;
61903;SDS011;47857;52.270;6.804;2023-02-13T06:39:29;38.00;;;22.90;;
61903;SDS011;47857;52.270;6.804;2023-02-13T06:41:54;42.30;;;24.73;;
61903;SDS011;47857;52.270;6.804;2023-02-13T06:44:20;41.38;;;25.27;;
61903;SDS011;47857;52.270;6.804;2023-02-13T06:46:45;44.53;;;25.10;;
61903;SDS011;47857;52.270;6.804;2023-02-13T06:49:11;40.83;;;24.50;;
61903;SDS011;47857;52.270;6.804;2023-02-13T06:51:36;37.47;;;23.23;;
61903;SDS011;47857;52.270;6.804;2023-02-13T06:54:02;41.85;;;24.92;;
61903;SDS011;47857;52.270;6.804;2023-02-13T06:56:27;40.63;;;24.63;;
61903;SDS011;47857;52.270;6.804;2023-02-13T06:58:53;43.28;;;24.13;;
61903;SDS011;47857;52.270;6.804;2023-02-13T07:01:18;39.13;;;23.20;;
61903;SDS011;47857;52.270;6.804;2023-02-13T07:03:44;38.10;;;23.60;;
61903;SDS011;47857;52.270;6.804;2023-02-13T07:06:10;40.38;;;24.27;;
61903;SDS011;47857;52.270;6.804;2023-02-13T07:08:41;38.05;;;23.70;;
61903;SDS011;47857;52.270;6.804;2023-02-13T07:11:06;37.47;;;22.95;;
61903;SDS011;47857;52.270;6.804;2023-02-13T07:13:32;41.33;;;22.88;;
61903;SDS011;47857;52.270;6.804;2023-02-13T07:15:59;42.55;;;24.05;;
61903;SDS011;47857;52.270;6.804;2023-02-13T07:18:25;43.85;;;25.63;;
61903;SDS011;47857;52.270;6.804;2023-02-13T07:20:51;39.25;;;24.58;;
61903;SDS011;47857;52.270;6.804;2023-02-13T07:23:16;41.58;;;25.58;;
61903;SDS011;47857;52.270;6.804;2023-02-13T07:25:42;44.88;;;27.02;;
61903;SDS011;47857;52.270;6.804;2023-02-13T07:28:08;45.55;;;26.40;;
61903;SDS011;47857;52.270;6.804;2023-02-13T07:30:34;43.47;;;27.33;;
61903;SDS011;47857;52.270;6.804;2023-02-13T07:33:00;44.22;;;26.73;;
61903;SDS011;47857;52.270;6.804;2023-02-13T07:35:26;44.20;;;27.40;;
61903;SDS011;47857;52.270;6.804;2023-02-13T07:37:52;44.00;;;26.23;;
61903;SDS011;47857;52.270;6.804;2023-02-13T07:40:18;43.55;;;26.38;;
61903;SDS011;47857;52.270;6.804;2023-02-13T07:42:44;38.03;;;23.85;;
61903;SDS011;47857;52.270;6.804;2023-02-13T07:45:09;40.13;;;25.20;;
61903;SDS011;47857;52.270;6.804;2023-02-13T07:47:36;39.53;;;25.88;;
61903;SDS011;47857;52.270;6.804;2023-02-13T07:50:02;40.35;;;25.55;;
61903;SDS011;47857;52.270;6.804;2023-02-13T07:52:30;42.83;;;26.60;;
61903;SDS011;47857;52.270;6.804;2023-02-13T07:54:56;44.20;;;26.52;;
61903;SDS011;47857;52.270;6.804;2023-02-13T07:57:22;49.67;;;29.23;;
61903;SDS011;47857;52.270;6.804;2023-02-13T07:59:47;46.95;;;29.90;;
61903;SDS011;47857;52.270;6.804;2023-02-13T08:02:13;41.30;;;27.70;;
61903;SDS011;47857;52.270;6.804;2023-02-13T08:04:39;49.50;;;29.40;;
61903;SDS011;47857;52.270;6.804;2023-02-13T08:07:05;45.17;;;27.98;;
61903;SDS011;47857;52.270;6.804;2023-02-13T08:09:30;41.70;;;26.35;;
61903;SDS011;47857;52.270;6.804;2023-02-13T08:14:40;42.67;;;27.02;;
61903;SDS011;47857;52.270;6.804;2023-02-13T08:17:05;40.88;;;25.42;;
61903;SDS011;47857;52.270;6.804;2023-02-13T08:19:31;39.90;;;24.80;;
61903;SDS011;47857;52.270;6.804;2023-02-13T08:21:56;38.58;;;25.92;;
61903;SDS011;47857;52.270;6.804;2023-02-13T08:24:22;40.17;;;25.40;;
61903;SDS011;47857;52.270;6.804;2023-02-13T08:26:48;40.85;;;25.58;;
61903;SDS011;47857;52.270;6.804;2023-02-13T08:29:13;37.90;;;25.63;;
61903;SDS011;47857;52.270;6.804;2023-02-13T08:31:39;36.63;;;25.08;;
61903;SDS011;47857;52.270;6.804;2023-02-13T08:34:04;39.13;;;25.73;;
61903;SDS011;47857;52.270;6.804;2023-02-13T08:36:30;40.95;;;27.58;;
61903;SDS011;47857;52.270;6.804;2023-02-13T08:38:56;42.22;;;27.08;;
61903;SDS011;47857;52.270;6.804;2023-02-13T08:41:22;42.28;;;28.20;;
61903;SDS011;47857;52.270;6.804;2023-02-13T08:43:48;39.95;;;27.10;;
61903;SDS011;47857;52.270;6.804;2023-02-13T08:46:14;43.05;;;27.88;;
61903;SDS011;47857;52.270;6.804;2023-02-13T08:48:41;40.72;;;28.02;;
61903;SDS011;47857;52.270;6.804;2023-02-13T08:51:07;42.90;;;26.27;;
61903;SDS011;47857;52.270;6.804;2023-02-13T08:53:33;37.13;;;25.90;;
61903;SDS011;47857;52.270;6.804;2023-02-13T08:55:59;41.38;;;26.45;;
61903;SDS011;47857;52.270;6.804;2023-02-13T08:58:25;39.28;;;26.27;;
61903;SDS011;47857;52.270;6.804;2023-02-13T09:00:50;41.90;;;27.20;;
61903;SDS011;47857;52.270;6.804;2023-02-13T09:03:16;39.67;;;27.30;;
61903;SDS011;47857;52.270;6.804;2023-02-13T09:05:41;40.50;;;27.08;;
61903;SDS011;47857;52.270;6.804;2023-02-13T09:08:07;39.20;;;27.05;;
61903;SDS011;47857;52.270;6.804;2023-02-13T09:10:36;37.13;;;26.73;;
61903;SDS011;47857;52.270;6.804;2023-02-13T09:13:02;38.67;;;27.45;;
61903;SDS011;47857;52.270;6.804;2023-02-13T09:15:28;36.85;;;26.85;;
61903;SDS011;47857;52.270;6.804;2023-02-13T09:17:54;35.72;;;26.75;;
61903;SDS011;47857;52.270;6.804;2023-02-13T09:20:19;36.72;;;26.17;;
61903;SDS011;47857;52.270;6.804;2023-02-13T09:22:45;37.05;;;26.17;;
61903;SDS011;47857;52.270;6.804;2023-02-13T09:25:10;37.03;;;27.10;;
61903;SDS011;47857;52.270;6.804;2023-02-13T09:27:36;37.60;;;27.30;;
61903;SDS011;47857;52.270;6.804;2023-02-13T09:30:03;38.25;;;27.05;;
61903;SDS011;47857;52.270;6.804;2023-02-13T09:32:33;38.45;;;26.58;;
61903;SDS011;47857;52.270;6.804;2023-02-13T09:34:59;37.92;;;26.67;;
61903;SDS011;47857;52.270;6.804;2023-02-13T09:37:25;34.20;;;25.55;;
61903;SDS011;47857;52.270;6.804;2023-02-13T09:39:51;34.22;;;25.27;;
61903;SDS011;47857;52.270;6.804;2023-02-13T09:42:18;34.38;;;26.02;;
61903;SDS011;47857;52.270;6.804;2023-02-13T09:44:49;33.90;;;25.80;;
61903;SDS011;47857;52.270;6.804;2023-02-13T09:49:55;38.60;;;25.50;;
61903;SDS011;47857;52.270;6.804;2023-02-13T09:52:24;35.42;;;25.77;;
61903;SDS011;47857;52.270;6.804;2023-02-13T09:54:51;34.67;;;25.63;;
61903;SDS011;47857;52.270;6.804;2023-02-13T10:00:02;33.25;;;24.30;;
61903;SDS011;47857;52.270;6.804;2023-02-13T10:02:41;36.67;;;25.77;;
61903;SDS011;47857;52.270;6.804;2023-02-13T10:07:56;38.30;;;25.75;;
61903;SDS011;47857;52.270;6.804;2023-02-13T10:19:34;36.67;;;25.13;;
61903;SDS011;47857;52.270;6.804;2023-02-13T10:22:22;37.58;;;25.83;;
61903;SDS011;47857;52.270;6.804;2023-02-13T10:24:58;40.58;;;25.63;;
61903;SDS011;47857;52.270;6.804;2023-02-13T10:27:36;35.35;;;25.35;;
61903;SDS011;47857;52.270;6.804;2023-02-13T10:30:08;43.67;;;25.88;;
61903;SDS011;47857;52.270;6.804;2023-02-13T10:35:17;41.58;;;25.65;;
61903;SDS011;47857;52.270;6.804;2023-02-13T10:37:49;39.55;;;26.55;;
61903;SDS011;47857;52.270;6.804;2023-02-13T10:40:16;38.25;;;27.42;;
61903;SDS011;47857;52.270;6.804;2023-02-13T10:42:43;41.47;;;26.67;;
61903;SDS011;47857;52.270;6.804;2023-02-13T10:47:56;35.75;;;25.83;;
61903;SDS011;47857;52.270;6.804;2023-02-13T10:50:25;38.63;;;26.75;;
61903;SDS011;47857;52.270;6.804;2023-02-13T11:04:00;37.70;;;26.30;;
61903;SDS011;47857;52.270;6.804;2023-02-13T11:06:37;38.95;;;27.27;;
61903;SDS011;47857;52.270;6.804;2023-02-13T11:09:22;37.88;;;26.80;;
61903;SDS011;47857;52.270;6.804;2023-02-13T11:11:48;39.67;;;27.40;;
61903;SDS011;47857;52.270;6.804;2023-02-13T11:19:15;35.97;;;26.67;;
61903;SDS011;47857;52.270;6.804;2023-02-13T11:21:43;37.45;;;27.27;;
61903;SDS011;47857;52.270;6.804;2023-02-13T11:24:20;35.85;;;27.20;;
61903;SDS011;47857;52.270;6.804;2023-02-13T11:26:57;37.08;;;28.23;;
61903;SDS011;47857;52.270;6.804;2023-02-13T11:29:25;39.88;;;29.08;;
61903;SDS011;47857;52.270;6.804;2023-02-13T11:34:31;39.83;;;30.35;;
61903;SDS011;47857;52.270;6.804;2023-02-13T11:37:13;37.20;;;28.77;;
61903;SDS011;47857;52.270;6.804;2023-02-13T11:39:39;41.03;;;30.63;;
61903;SDS011;47857;52.270;6.804;2023-02-13T11:42:15;39.42;;;29.75;;
61903;SDS011;47857;52.270;6.804;2023-02-13T11:44:43;39.63;;;29.58;;
61903;SDS011;47857;52.270;6.804;2023-02-13T11:47:13;35.55;;;28.98;;
61903;SDS011;47857;52.270;6.804;2023-02-13T11:49:43;36.83;;;29.73;;
61903;SDS011;47857;52.270;6.804;2023-02-13T11:52:22;40.97;;;29.92;;
61903;SDS011;47857;52.270;6.804;2023-02-13T11:54:54;38.63;;;29.77;;
61903;SDS011;47857;52.270;6.804;2023-02-13T11:59:57;37.58;;;29.42;;
61903;SDS011;47857;52.270;6.804;2023-02-13T12:05:14;38.63;;;29.58;;
61903;SDS011;47857;52.270;6.804;2023-02-13T12:07:39;37.05;;;29.40;;
61903;SDS011;47857;52.270;6.804;2023-02-13T12:12:50;36.40;;;28.00;;
61903;SDS011;47857;52.270;6.804;2023-02-13T12:17:45;38.88;;;26.38;;
61903;SDS011;47857;52.270;6.804;2023-02-13T12:20:13;32.08;;;25.73;;
61903;SDS011;47857;52.270;6.804;2023-02-13T12:22:50;32.97;;;25.33;;
61903;SDS011;47857;52.270;6.804;2023-02-13T12:28:01;34.22;;;24.77;;
61903;SDS011;47857;52.270;6.804;2023-02-13T12:38:45;26.88;;;20.40;;
61903;SDS011;47857;52.270;6.804;2023-02-13T12:41:23;29.35;;;18.83;;
61903;SDS011;47857;52.270;6.804;2023-02-13T12:44:03;25.85;;;18.08;;
61903;SDS011;47857;52.270;6.804;2023-02-13T12:49:20;26.73;;;19.38;;
61903;SDS011;47857;52.270;6.804;2023-02-13T12:52:23;28.45;;;20.20;;
61903;SDS011;47857;52.270;6.804;2023-02-13T13:06:31;22.83;;;17.02;;
61903;SDS011;47857;52.270;6.804;2023-02-13T13:11:49;20.50;;;16.35;;
61903;SDS011;47857;52.270;6.804;2023-02-13T13:14:38;23.27;;;16.45;;
61903;SDS011;47857;52.270;6.804;2023-02-13T13:28:37;23.77;;;16.65;;
61903;SDS011;47857;52.270;6.804;2023-02-13T13:31:05;22.17;;;16.70;;
61903;SDS011;47857;52.270;6.804;2023-02-13T13:33:31;22.90;;;16.73;;
61903;SDS011;47857;52.270;6.804;2023-02-13T13:36:00;23.13;;;16.45;;
61903;SDS011;47857;52.270;6.804;2023-02-13T13:41:37;20.40;;;15.60;;
61903;SDS011;47857;52.270;6.804;2023-02-13T13:49:59;21.65;;;15.13;;
61903;SDS011;47857;52.270;6.804;2023-02-13T13:52:27;23.48;;;15.55;;
61903;SDS011;47857;52.270;6.804;2023-02-13T13:54:54;18.02;;;14.80;;
61903;SDS011;47857;52.270;6.804;2023-02-13T14:07:38;19.30;;;14.68;;
61903;SDS011;47857;52.270;6.804;2023-02-13T14:20:40;18.02;;;14.43;;
61903;SDS011;47857;52.270;6.804;2023-02-13T14:26:11;20.43;;;16.37;;
61903;SDS011;47857;52.270;6.804;2023-02-13T14:28:41;26.17;;;17.20;;
61903;SDS011;47857;52.270;6.804;2023-02-13T14:31:13;21.40;;;16.70;;
61903;SDS011;47857;52.270;6.804;2023-02-13T14:36:42;21.23;;;16.95;;
61903;SDS011;47857;52.270;6.804;2023-02-13T14:39:21;21.83;;;16.88;;
61903;SDS011;47857;52.270;6.804;2023-02-13T14:44:17;25.65;;;17.95;;
61903;SDS011;47857;52.270;6.804;2023-02-13T14:46:45;25.95;;;17.92;;
61903;SDS011;47857;52.270;6.804;2023-02-13T14:49:16;21.80;;;18.00;;
61903;SDS011;47857;52.270;6.804;2023-02-13T14:51:46;23.98;;;18.38;;
61903;SDS011;47857;52.270;6.804;2023-02-13T14:54:23;25.55;;;19.20;;
61903;SDS011;47857;52.270;6.804;2023-02-13T14:59:40;25.08;;;20.00;;
61903;SDS011;47857;52.270;6.804;2023-02-13T15:02:17;23.67;;;19.58;;
61903;SDS011;47857;52.270;6.804;2023-02-13T15:04:50;25.95;;;20.58;;
61903;SDS011;47857;52.270;6.804;2023-02-13T15:07:20;24.92;;;20.23;;
61903;SDS011;47857;52.270;6.804;2023-02-13T15:09:52;25.48;;;20.42;;
61903;SDS011;47857;52.270;6.804;2023-02-13T15:14:50;27.58;;;21.70;;
61903;SDS011;47857;52.270;6.804;2023-02-13T15:17:17;27.60;;;21.63;;
61903;SDS011;47857;52.270;6.804;2023-02-13T15:19:46;26.45;;;20.98;;
61903;SDS011;47857;52.270;6.804;2023-02-13T15:22:17;27.10;;;22.15;;
61903;SDS011;47857;52.270;6.804;2023-02-13T15:24:54;25.85;;;21.08;;
61903;SDS011;47857;52.270;6.804;2023-02-13T15:27:23;26.50;;;21.38;;
61903;SDS011;47857;52.270;6.804;2023-02-13T15:29:55;31.40;;;22.27;;
61903;SDS011;47857;52.270;6.804;2023-02-13T15:32:25;26.65;;;21.38;;
61903;SDS011;47857;52.270;6.804;2023-02-13T15:34:55;28.50;;;22.40;;
61903;SDS011;47857;52.270;6.804;2023-02-13T15:37:22;28.13;;;22.05;;
61903;SDS011;47857;52.270;6.804;2023-02-13T15:39:48;29.25;;;22.83;;
61903;SDS011;47857;52.270;6.804;2023-02-13T15:42:14;29.55;;;22.63;;
61903;SDS011;47857;52.270;6.804;2023-02-13T15:44:39;30.33;;;22.30;;
61903;SDS011;47857;52.270;6.804;2023-02-13T15:47:13;29.85;;;21.98;;
61903;SDS011;47857;52.270;6.804;2023-02-13T15:50:00;28.08;;;21.95;;
61903;SDS011;47857;52.270;6.804;2023-02-13T15:52:30;26.77;;;21.58;;
61903;SDS011;47857;52.270;6.804;2023-02-13T15:54:58;26.67;;;21.30;;
61903;SDS011;47857;52.270;6.804;2023-02-13T15:57:23;25.08;;;19.98;;
61903;SDS011;47857;52.270;6.804;2023-02-13T15:59:50;27.52;;;20.20;;
61903;SDS011;47857;52.270;6.804;2023-02-13T16:02:19;27.73;;;21.67;;
61903;SDS011;47857;52.270;6.804;2023-02-13T16:04:46;24.80;;;20.05;;
61903;SDS011;47857;52.270;6.804;2023-02-13T16:07:14;26.98;;;20.65;;
61903;SDS011;47857;52.270;6.804;2023-02-13T16:09:40;26.75;;;20.38;;
61903;SDS011;47857;52.270;6.804;2023-02-13T16:12:14;25.23;;;18.92;;
61903;SDS011;47857;52.270;6.804;2023-02-13T16:14:46;25.00;;;19.38;;
61903;SDS011;47857;52.270;6.804;2023-02-13T16:17:25;23.83;;;18.73;;
61903;SDS011;47857;52.270;6.804;2023-02-13T16:19:55;24.27;;;18.92;;
61903;SDS011;47857;52.270;6.804;2023-02-13T16:27:28;24.85;;;18.88;;
61903;SDS011;47857;52.270;6.804;2023-02-13T16:30:01;23.13;;;17.73;;
61903;SDS011;47857;52.270;6.804;2023-02-13T16:32:31;25.27;;;19.05;;
61903;SDS011;47857;52.270;6.804;2023-02-13T16:38:02;25.20;;;19.42;;
61903;SDS011;47857;52.270;6.804;2023-02-13T16:40:39;25.35;;;19.98;;
61903;SDS011;47857;52.270;6.804;2023-02-13T16:46:13;24.42;;;20.52;;
61903;SDS011;47857;52.270;6.804;2023-02-13T16:56:53;37.97;;;26.15;;
61903;SDS011;47857;52.270;6.804;2023-02-13T17:02:33;37.13;;;25.38;;
61903;SDS011;47857;52.270;6.804;2023-02-13T17:07:34;35.83;;;25.27;;
61903;SDS011;47857;52.270;6.804;2023-02-13T17:10:16;32.25;;;23.48;;
61903;SDS011;47857;52.270;6.804;2023-02-13T17:12:43;32.00;;;23.60;;
61903;SDS011;47857;52.270;6.804;2023-02-13T17:15:10;33.67;;;26.65;;
61903;SDS011;47857;52.270;6.804;2023-02-13T17:17:37;35.10;;;27.88;;
61903;SDS011;47857;52.270;6.804;2023-02-13T17:20:03;35.35;;;27.60;;
61903;SDS011;47857;52.270;6.804;2023-02-13T17:22:38;35.00;;;26.52;;
61903;SDS011;47857;52.270;6.804;2023-02-13T17:25:06;34.50;;;26.55;;
61903;SDS011;47857;52.270;6.804;2023-02-13T17:27:43;34.53;;;24.88;;
61903;SDS011;47857;52.270;6.804;2023-02-13T17:30:12;32.25;;;25.10;;
61903;SDS011;47857;52.270;6.804;2023-02-13T17:32:39;33.53;;;24.98;;
61903;SDS011;47857;52.270;6.804;2023-02-13T17:35:05;36.35;;;25.83;;
61903;SDS011;47857;52.270;6.804;2023-02-13T17:37:30;33.00;;;24.70;;
61903;SDS011;47857;52.270;6.804;2023-02-13T17:39:56;32.90;;;25.13;;
61903;SDS011;47857;52.270;6.804;2023-02-13T17:42:27;37.95;;;28.00;;
61903;SDS011;47857;52.270;6.804;2023-02-13T17:44:53;38.03;;;28.70;;
61903;SDS011;47857;52.270;6.804;2023-02-13T17:47:20;36.67;;;27.92;;
61903;SDS011;47857;52.270;6.804;2023-02-13T17:49:46;37.60;;;28.50;;
61903;SDS011;47857;52.270;6.804;2023-02-13T17:52:13;38.38;;;28.77;;
61903;SDS011;47857;52.270;6.804;2023-02-13T17:54:41;40.25;;;30.40;;
61903;SDS011;47857;52.270;6.804;2023-02-13T17:57:08;47.33;;;33.20;;
61903;SDS011;47857;52.270;6.804;2023-02-13T17:59:34;49.17;;;35.05;;
61903;SDS011;47857;52.270;6.804;2023-02-13T18:01:59;47.17;;;33.17;;
61903;SDS011;47857;52.270;6.804;2023-02-13T18:04:24;46.67;;;32.60;;
61903;SDS011;47857;52.270;6.804;2023-02-13T18:06:51;43.63;;;30.77;;
61903;SDS011;47857;52.270;6.804;2023-02-13T18:09:17;40.30;;;29.45;;